To NAV CANADA Home Page Login to a new session Search on AWWS site Feedback and Comments Disclaimer Vers la page française équivalente Tips FAQ What's new on the site To the Forecasts and Observations / NOTAM section To "File a Flight Plan" website Publications and other links Update of the User's profile FIC Telephone Numbers My Weather Data Folder Route Weather Data Regional Weather Data Local Weather Data To the Forecasts and Observations / NOTAM section
Request Generated 05/27/2016 at 08:20:22 UTC . Weather information available at that time is displayed.

METAR/TAF

SASKATOON/JOHN G. DIEFENBAKER INTL/SK    

METAR CYXE 270800Z 28003KT 220V300 15SM FEW050 BKN120 13/10 A2989 RMK
SC2AC5 SLP129 DENSITY ALT 1800FT=
METAR CYXE 270700Z 00000KT 15SM SCT120 14/10 A2989 RMK AC4 SLP128
DENSITY ALT 1900FT=
METAR CYXE 270600Z 26007KT 15SM BKN090 15/10 A2987 RMK AC5 SLP124
DENSITY ALT 2000FT=

TAF CYXE 270542Z 2706/2806 VRB03KT P6SM SCT070 BKN100
FM271200 32005KT P6SM SCT060 BKN220
BECMG 2713/2715 14006KT
FM271700 14008KT P6SM BKN050
FM272000 12010KT P6SM -SHRA BKN060 PROB30 2720/2803 VRB15G25KT
5SM TSRA OVC040CB
FM280300 12010KT P6SM BKN025
RMK NXT FCST BY 271200Z=
Your time UTC time
Weather data provided by Environment Canada and NAV CANADA